Time;durP1;ratioP1;P1;durP2;ratioP2;P2;SDS_P1;SDS_P2;PMS_P1;PMS_P2;Temp;Humidity;BMP_temperature;BMP_pressure;BME280_temperature;BME280_humidity;BME280_pressure;Samples;Min_cycle;Max_cycle;Signal;HPM_P1;HPM_P2
2021/10/16 00:01:37;;;;;;;7.83;6.78;;;;;;;16.85;41.49;100024.95;1721662;82;21003;-58
2021/10/16 00:04:04;;;;;;;8.18;7.08;;;;;;;16.85;41.52;100024.14;1713910;83;21027;-59
2021/10/16 00:06:31;;;;;;;7.47;6.67;;;;;;;16.84;41.52;100023.32;1735428;82;21030;-59
2021/10/16 00:08:57;;;;;;;8.00;7.20;;;;;;;16.83;41.56;100018.16;1741971;82;21003;-60
2021/10/16 00:11:23;;;;;;;8.28;6.97;;;;;;;16.82;41.58;100024.02;1740960;82;21819;-59
2021/10/16 00:13:50;;;;;;;8.10;7.25;;;;;;;16.81;41.57;100021.52;1742319;81;21507;-59
2021/10/16 00:16:16;;;;;;;9.20;7.60;;;;;;;16.81;41.58;100026.37;1741836;82;21078;-60
2021/10/16 00:18:42;;;;;;;8.40;6.83;;;;;;;16.80;41.59;100022.02;1741990;81;21094;-60
2021/10/16 00:21:09;;;;;;;7.72;6.92;;;;;;;16.78;41.61;100012.52;1742030;82;21043;-59
2021/10/16 00:23:35;;;;;;;8.25;7.40;;;;;;;16.78;41.68;100012.52;1741909;81;21063;-61
2021/10/16 00:26:02;;;;;;;7.75;6.80;;;;;;;16.76;41.67;100007.35;1742110;82;21020;-59
2021/10/16 00:28:28;;;;;;;8.08;7.25;;;;;;;16.76;41.67;100007.88;1740965;82;21047;-60
2021/10/16 00:30:55;;;;;;;8.13;7.33;;;;;;;16.75;41.65;99998.19;1743682;81;21476;-58
2021/10/16 00:33:22;;;;;;;7.85;7.05;;;;;;;16.75;41.68;99991.48;1743526;82;21518;-60
2021/10/16 00:35:48;;;;;;;8.08;7.28;;;;;;;16.74;41.70;99992.50;1743666;82;21048;-61
2021/10/16 00:38:16;;;;;;;8.83;7.55;;;;;;;16.74;41.70;99992.50;1743591;81;21102;-59
2021/10/16 00:40:42;;;;;;;9.55;8.25;;;;;;;16.72;41.70;99988.67;1743615;81;21023;-59
2021/10/16 00:43:09;;;;;;;8.48;7.55;;;;;;;16.71;41.73;99978.98;1743833;81;21451;-59
2021/10/16 00:45:36;;;;;;;7.97;7.17;;;;;;;16.70;41.71;99972.77;1741950;82;21066;-59
2021/10/16 00:48:03;;;;;;;8.90;6.70;;;;;;;16.70;41.73;99977.31;1743678;82;21068;-58
2021/10/16 00:50:30;;;;;;;7.58;6.50;;;;;;;16.69;41.74;99978.36;1753227;80;21077;-60
2021/10/16 00:52:56;;;;;;;7.97;7.10;;;;;;;16.68;41.77;99973.48;1756923;81;21537;-59
2021/10/16 00:55:23;;;;;;;9.08;7.33;;;;;;;16.68;41.78;99965.97;1756579;81;21018;-59
2021/10/16 00:57:50;;;;;;;9.63;7.20;;;;;;;16.67;41.79;99970.52;1756908;81;20995;-59
2021/10/16 01:00:20;;;;;;;7.97;7.17;;;;;;;16.65;41.83;99967.70;1756634;81;21124;-59
2021/10/16 01:02:46;;;;;;;7.85;6.87;;;;;;;16.64;41.80;99966.88;1755207;81;21066;-59
2021/10/16 01:05:13;;;;;;;8.45;7.55;;;;;;;16.64;41.80;99969.56;1756913;81;21002;-59
2021/10/16 01:07:41;;;;;;;8.45;7.40;;;;;;;16.63;41.78;99971.09;1756983;81;21033;-59
2021/10/16 01:10:11;;;;;;;8.68;7.75;;;;;;;16.62;41.84;99967.59;1756864;81;20995;-59
2021/10/16 01:12:39;;;;;;;8.53;7.10;;;;;;;16.61;41.82;99969.98;1756962;81;22048;-59
2021/10/16 01:15:11;;;;;;;7.83;7.03;;;;;;;16.60;41.85;99975.02;1756920;81;21510;-59
2021/10/16 01:17:38;;;;;;;8.38;7.35;;;;;;;16.59;41.84;99969.36;1757221;81;21058;-59
2021/10/16 01:20:20;;;;;;;9.43;7.72;;;;;;;16.58;41.87;99970.37;1755245;81;21022;-59
2021/10/16 01:22:49;;;;;;;8.70;7.75;;;;;;;16.58;41.90;99969.03;1757267;81;21062;-58
2021/10/16 01:25:18;;;;;;;8.88;7.92;;;;;;;16.57;41.88;99970.57;1756776;81;21053;-59
2021/10/16 01:27:44;;;;;;;7.65;6.90;;;;;;;16.57;41.91;99964.69;1757069;81;21072;-60
2021/10/16 01:30:17;;;;;;;8.95;7.58;;;;;;;16.55;41.91;99961.38;1756764;81;21029;-59
2021/10/16 01:32:44;;;;;;;8.78;7.08;;;;;;;16.43;41.93;99951.75;1757191;81;21061;-59
2021/10/16 01:35:11;;;;;;;9.23;7.90;;;;;;;16.54;41.96;99973.16;1757095;81;21034;-59
2021/10/16 01:37:43;;;;;;;8.53;7.70;;;;;;;16.53;41.97;99972.00;1755211;81;21003;-59
2021/10/16 01:40:12;;;;;;;9.03;7.75;;;;;;;16.52;41.97;99967.17;1756626;81;21517;-59
2021/10/16 01:42:43;;;;;;;8.78;7.85;;;;;;;16.51;41.97;99965.50;1756948;81;21048;-61
2021/10/16 01:45:14;;;;;;;8.73;7.83;;;;;;;16.50;42.00;99958.50;1756936;81;21058;-59
2021/10/16 01:47:54;;;;;;;10.53;8.10;;;;;;;16.50;42.02;99959.84;1756825;81;21025;-60
2021/10/16 01:50:25;;;;;;;8.00;7.20;;;;;;;16.49;42.02;99961.67;1719709;82;23269;-61
2021/10/16 01:52:51;;;;;;;8.23;7.42;;;;;;;16.47;42.05;99962.39;1688768;83;21086;-60
2021/10/16 01:55:19;;;;;;;8.90;7.83;;;;;;;16.47;42.04;99958.36;1741772;82;21564;-58
2021/10/16 01:57:47;;;;;;;8.95;7.95;;;;;;;16.47;42.03;99954.87;1734787;80;21518;-59
2021/10/16 02:00:15;;;;;;;9.45;8.08;;;;;;;16.46;42.06;99945.19;1742687;81;21589;-59
2021/10/16 02:02:41;;;;;;;7.85;7.05;;;;;;;16.44;42.05;99946.72;1733103;82;21885;-59
2021/10/16 02:05:25;;;;;;;9.10;7.78;;;;;;;16.45;42.03;99944.33;1743055;81;21523;-59
2021/10/16 02:07:53;;;;;;;8.73;7.83;;;;;;;16.44;42.05;99941.36;1721298;80;20991;-60
2021/10/16 02:10:20;;;;;;;7.62;6.83;;;;;;;16.43;42.07;99937.53;1739402;80;21109;-59
2021/10/16 02:12:46;;;;;;;9.10;8.25;;;;;;;16.42;42.08;99938.05;1735967;82;21128;-59
2021/10/16 02:15:12;;;;;;;9.63;8.63;;;;;;;16.42;42.09;99930.53;1742554;81;21174;-60
2021/10/16 02:17:41;;;;;;;9.35;8.45;;;;;;;16.41;42.10;99931.02;1739856;80;21456;-59
2021/10/16 02:20:11;;;;;;;7.95;7.20;;;;;;;16.42;42.08;99939.91;1718470;81;21539;-59
2021/10/16 02:22:37;;;;;;;8.88;7.97;;;;;;;16.42;42.11;99934.55;1741070;81;21028;-58
2021/10/16 02:25:06;;;;;;;9.03;8.13;;;;;;;16.40;42.12;99930.73;1739895;80;21085;-58
2021/10/16 02:27:35;;;;;;;8.25;7.45;;;;;;;16.40;42.13;99932.55;1736234;81;21097;-59
2021/10/16 02:30:01;;;;;;;8.70;7.45;;;;;;;16.39;42.14;99937.10;1731048;81;21577;-60
2021/10/16 02:32:27;;;;;;;10.03;7.67;;;;;;;16.38;42.13;99935.47;1728056;80;21018;-60
2021/10/16 02:34:53;;;;;;;9.28;7.58;;;;;;;16.38;42.14;99934.62;1738552;82;21011;-60
2021/10/16 02:37:22;;;;;;;8.35;7.30;;;;;;;16.39;42.14;99926.38;1740533;82;21026;-59
2021/10/16 02:39:50;;;;;;;9.30;8.40;;;;;;;16.38;42.14;99931.44;1735708;81;21142;-60
2021/10/16 02:42:16;;;;;;;8.33;7.53;;;;;;;16.38;42.16;99930.10;1733994;82;21023;-59
2021/10/16 02:44:43;;;;;;;9.00;8.10;;;;;;;16.38;42.15;99927.91;1721868;81;21073;-59
2021/10/16 02:47:10;;;;;;;9.30;7.80;;;;;;;16.37;42.15;99929.77;1712556;81;21019;-58
2021/10/16 02:49:36;;;;;;;8.68;7.65;;;;;;;16.37;42.14;99924.94;1712951;82;21707;-59
2021/10/16 02:52:04;;;;;;;9.08;8.18;;;;;;;16.37;42.18;99930.30;1717504;81;21842;-59
2021/10/16 02:54:32;;;;;;;8.23;7.12;;;;;;;16.37;42.15;99924.94;1715149;82;21031;-63
2021/10/16 02:56:59;;;;;;;9.08;8.28;;;;;;;16.36;42.18;99925.45;1714637;82;21002;-60
2021/10/16 02:59:26;;;;;;;8.53;7.55;;;;;;;16.35;42.16;99922.45;1724271;81;21066;-59
2021/10/16 03:01:55;;;;;;;9.90;8.85;;;;;;;16.35;42.17;99918.95;1736389;82;21054;-60
2021/10/16 03:04:25;;;;;;;8.75;7.60;;;;;;;16.35;42.19;99918.95;1723754;81;21289;-60
2021/10/16 03:06:53;;;;;;;9.00;7.95;;;;;;;16.35;42.17;99920.30;1740391;80;21073;-59
2021/10/16 03:09:19;;;;;;;8.28;7.47;;;;;;;16.35;42.17;99925.66;1724186;81;21037;-59
2021/10/16 03:11:46;;;;;;;9.40;8.35;;;;;;;16.34;42.19;99915.94;1728234;81;21749;-59
2021/10/16 03:14:13;;;;;;;7.87;7.12;;;;;;;16.34;42.20;99921.30;1733921;81;21550;-58
2021/10/16 03:16:41;;;;;;;9.55;8.55;;;;;;;16.34;42.19;99919.97;1748060;81;23173;-59
2021/10/16 03:19:09;;;;;;;9.03;7.87;;;;;;;16.33;42.20;99921.83;1741820;81;21683;-59
2021/10/16 03:21:35;;;;;;;10.10;7.90;;;;;;;16.33;42.20;99916.47;1748699;81;21515;-59
2021/10/16 03:24:04;;;;;;;8.98;8.08;;;;;;;16.33;42.18;99915.65;1735220;81;21012;-58
2021/10/16 03:26:31;;;;;;;11.15;8.78;;;;;;;16.33;42.18;99911.63;1733977;81;21121;-60
2021/10/16 03:28:58;;;;;;;9.33;8.35;;;;;;;16.31;42.20;99908.62;1722626;81;21094;-59
2021/10/16 03:31:25;;;;;;;9.38;8.45;;;;;;;16.30;42.19;99905.64;1723708;81;21018;-59
2021/10/16 03:33:53;;;;;;;8.53;7.30;;;;;;;16.31;42.20;99905.12;1732128;81;21041;-58
2021/10/16 03:36:19;;;;;;;9.00;8.10;;;;;;;16.29;42.20;99899.13;1730571;81;22200;-59
2021/10/16 03:38:45;;;;;;;9.55;8.50;;;;;;;16.31;42.20;99909.14;1725706;81;21073;-59
2021/10/16 03:41:11;;;;;;;9.95;8.95;;;;;;;16.31;42.21;99909.95;1723707;80;21146;-60
2021/10/16 03:43:38;;;;;;;8.90;7.90;;;;;;;16.30;42.21;99904.79;1716725;82;21976;-59
2021/10/16 03:46:04;;;;;;;9.28;8.38;;;;;;;16.31;42.22;99905.12;1716396;81;21177;-59
2021/10/16 03:48:31;;;;;;;8.78;7.87;;;;;;;16.30;42.22;99907.47;1714931;81;21101;-59
2021/10/16 03:50:58;;;;;;;10.32;8.88;;;;;;;16.29;42.22;99910.67;1736203;80;21066;-58
2021/10/16 03:53:24;;;;;;;8.88;7.97;;;;;;;16.29;42.20;99905.84;1733893;80;21140;-59
2021/10/16 03:55:52;;;;;;;10.23;8.30;;;;;;;16.29;42.21;99911.20;1747194;80;21089;-60
2021/10/16 03:58:19;;;;;;;9.80;8.80;;;;;;;16.29;42.21;99911.20;1749422;80;21004;-59
2021/10/16 04:00:48;;;;;;;9.85;8.40;;;;;;;16.28;42.25;99913.06;1752421;80;21045;-60
2021/10/16 04:03:16;;;;;;;9.40;8.40;;;;;;;16.28;42.25;99910.37;1750985;80;21813;-59
2021/10/16 04:05:44;;;;;;;9.03;7.95;;;;;;;16.27;42.28;99912.73;1733120;81;21484;-60
2021/10/16 04:08:13;;;;;;;10.10;8.70;;;;;;;16.27;42.29;99911.39;1755632;81;21097;-60
2021/10/16 04:10:39;;;;;;;8.83;7.92;;;;;;;16.27;42.27;99910.57;1736410;81;21077;-59
2021/10/16 04:13:06;;;;;;;9.10;8.20;;;;;;;16.26;42.30;99908.91;1756711;80;21041;-58
2021/10/16 04:15:34;;;;;;;10.48;8.10;;;;;;;16.26;42.27;99915.61;1751688;80;21041;-59
2021/10/16 04:18:01;;;;;;;9.45;8.13;;;;;;;16.24;42.35;99914.98;1729899;80;21569;-59
2021/10/16 04:20:27;;;;;;;10.20;7.83;;;;;;;16.25;42.29;99913.97;1726559;81;21073;-58
2021/10/16 04:22:53;;;;;;;9.40;8.08;;;;;;;16.25;42.33;99916.66;1748077;80;21058;-59
2021/10/16 04:25:20;;;;;;;9.35;8.35;;;;;;;16.24;42.34;99914.46;1741029;81;21777;-62
2021/10/16 04:27:47;;;;;;;8.85;7.95;;;;;;;16.25;42.34;99923.35;1729236;81;21081;-59
2021/10/16 04:30:25;;;;;;;8.93;7.35;;;;;;;16.24;42.32;99919.00;1746466;80;21146;-59
2021/10/16 04:32:52;;;;;;;8.38;7.50;;;;;;;16.23;42.33;99916.84;1747413;80;21006;-61
2021/10/16 04:35:20;;;;;;;8.15;7.35;;;;;;;16.24;42.31;99914.98;1752579;81;21093;-59
2021/10/16 04:37:47;;;;;;;9.18;8.28;;;;;;;16.23;42.33;99910.66;1736483;80;21097;-59
2021/10/16 04:40:22;;;;;;;8.65;7.75;;;;;;;16.22;42.36;99908.48;1742692;80;21016;-59
2021/10/16 04:42:42;;;;;;;8.95;8.03;;;;;;;16.23;42.39;99910.66;1725661;80;21085;-59
2021/10/16 04:45:09;;;;;;;9.95;8.83;;;;;;;16.22;42.34;99914.36;1727342;80;21113;-59
2021/10/16 04:47:37;;;;;;;9.33;8.33;;;;;;;16.22;42.35;99920.54;1742793;81;21049;-59
2021/10/16 04:50:08;;;;;;;10.35;8.18;;;;;;;16.22;42.33;99921.88;1748318;80;21053;-59
2021/10/16 04:52:34;;;;;;;9.00;8.03;;;;;;;16.21;42.34;99921.58;1741963;81;21057;-59
2021/10/16 04:55:04;;;;;;;8.93;8.08;;;;;;;16.22;42.33;99921.06;1719125;80;21151;-59
2021/10/16 04:57:30;;;;;;;9.93;8.93;;;;;;;16.23;42.35;99918.70;1746720;81;21046;-59
2021/10/16 04:59:57;;;;;;;9.70;8.70;;;;;;;16.21;42.36;99910.86;1725166;81;21125;-59
2021/10/16 05:02:25;;;;;;;8.10;7.30;;;;;;;16.21;42.36;99909.52;1734603;81;21033;-58
2021/10/16 05:04:53;;;;;;;10.53;9.23;;;;;;;16.22;42.38;99907.66;1749026;80;21519;-59
2021/10/16 05:07:20;;;;;;;9.63;8.68;;;;;;;16.23;42.33;99902.63;1754100;80;21127;-59
2021/10/16 05:09:49;;;;;;;9.73;8.05;;;;;;;16.21;42.33;99902.82;1755082;81;21058;-59
2021/10/16 05:12:17;;;;;;;9.30;8.35;;;;;;;16.22;42.37;99907.14;1730761;80;21041;-58
2021/10/16 05:14:45;;;;;;;9.03;7.83;;;;;;;16.22;42.36;99904.45;1726320;80;21082;-61
2021/10/16 05:17:13;;;;;;;8.80;7.90;;;;;;;16.23;42.37;99906.12;1740151;81;21057;-59
2021/10/16 05:19:41;;;;;;;8.45;7.65;;;;;;;16.23;42.35;99901.28;1726494;81;21104;-59
2021/10/16 05:22:08;;;;;;;9.30;8.35;;;;;;;16.23;42.42;99895.41;1726422;81;21050;-59
2021/10/16 05:24:36;;;;;;;9.30;8.40;;;;;;;16.24;42.38;99897.56;1747562;80;21085;-60
2021/10/16 05:27:03;;;;;;;9.05;8.15;;;;;;;16.22;42.36;99896.41;1753451;80;21561;-58
2021/10/16 05:29:30;;;;;;;9.50;8.10;;;;;;;16.24;42.36;99909.10;1748250;80;21014;-59
2021/10/16 05:31:57;;;;;;;8.90;7.30;;;;;;;16.24;42.36;99899.72;1736416;81;23102;-60
2021/10/16 05:34:24;;;;;;;9.20;8.23;;;;;;;16.25;42.36;99909.95;1747961;80;21495;-59
2021/10/16 05:36:50;;;;;;;9.23;8.08;;;;;;;16.25;42.35;99900.05;1729907;80;21037;-60
2021/10/16 05:39:17;;;;;;;10.15;8.53;;;;;;;16.26;42.35;99908.41;1728190;81;21085;-60
2021/10/16 05:41:44;;;;;;;9.70;8.53;;;;;;;16.25;42.34;99897.89;1733350;81;21111;-59
2021/10/16 05:44:10;;;;;;;9.45;8.33;;;;;;;16.26;42.40;99896.35;1753845;81;21120;-60
2021/10/16 05:46:37;;;;;;;10.43;9.20;;;;;;;16.27;42.36;99897.17;1733483;81;21108;-59
2021/10/16 05:49:05;;;;;;;10.45;9.30;;;;;;;16.28;42.35;99900.14;1732624;81;21049;-59
2021/10/16 05:51:32;;;;;;;8.98;7.85;;;;;;;16.28;42.36;99901.00;1731061;81;21089;-59
2021/10/16 05:53:59;;;;;;;10.28;8.80;;;;;;;16.29;42.36;99901.81;1745977;80;21577;-60
2021/10/16 05:56:26;;;;;;;8.70;7.85;;;;;;;16.28;42.33;99905.51;1734784;80;21210;-59
2021/10/16 05:58:58;;;;;;;10.28;8.28;;;;;;;16.28;42.35;99911.72;1735879;80;21017;-58
2021/10/16 06:01:22;;;;;;;8.95;8.03;;;;;;;16.28;42.35;99907.70;1754937;81;21003;-60
2021/10/16 06:03:50;;;;;;;8.85;7.95;;;;;;;16.29;42.35;99913.36;1743198;80;21022;-60
2021/10/16 06:06:17;;;;;;;10.18;8.70;;;;;;;16.29;42.38;99903.16;1745311;80;21061;-59
2021/10/16 06:08:44;;;;;;;9.00;7.70;;;;;;;16.30;42.35;99904.30;1731827;80;21139;-59
2021/10/16 06:11:10;;;;;;;8.48;7.67;;;;;;;16.31;42.38;99904.59;1726489;81;21164;-59
2021/10/16 06:13:37;;;;;;;8.95;8.05;;;;;;;16.33;42.36;99900.38;1731050;80;21101;-60
2021/10/16 06:16:04;;;;;;;9.60;8.65;;;;;;;16.34;42.34;99898.52;1733901;80;21518;-60
2021/10/16 06:18:31;;;;;;;10.38;8.95;;;;;;;16.35;42.31;99902.86;1753894;80;21550;-59
2021/10/16 06:20:57;;;;;;;9.00;8.00;;;;;;;16.36;42.32;99901.82;1749514;80;21587;-61
2021/10/16 06:23:24;;;;;;;8.60;7.65;;;;;;;16.37;42.30;99898.95;1726553;81;21060;-60
2021/10/16 06:25:51;;;;;;;10.38;8.95;;;;;;;16.38;42.28;99897.08;1727570;81;21029;-60
2021/10/16 06:28:17;;;;;;;8.70;7.90;;;;;;;16.39;42.30;99898.75;1741645;80;21052;-59
2021/10/16 06:30:44;;;;;;;10.70;8.75;;;;;;;16.39;42.32;99900.91;1726493;81;21296;-60
2021/10/16 06:33:11;;;;;;;9.10;7.97;;;;;;;16.40;42.30;99905.75;1728847;81;21192;-59
2021/10/16 06:35:38;;;;;;;9.78;8.78;;;;;;;16.41;42.29;99907.41;1722313;82;21577;-60
2021/10/16 06:38:06;;;;;;;9.43;8.53;;;;;;;16.41;42.28;99909.57;1725335;81;21553;-59
2021/10/16 06:40:34;;;;;;;9.13;8.23;;;;;;;16.42;42.28;99911.24;1726402;80;21083;-59
2021/10/16 06:43:02;;;;;;;10.30;8.63;;;;;;;16.43;42.28;99912.88;1733603;81;21038;-59
2021/10/16 06:45:48;;;;;;;9.73;8.73;;;;;;;16.44;42.30;99909.70;1740377;80;21592;-59
2021/10/16 06:48:16;;;;;;;10.15;9.15;;;;;;;16.44;42.31;99910.52;1751268;80;21108;-61
2021/10/16 06:50:56;;;;;;;9.30;8.35;;;;;;;16.45;42.30;99908.66;1737980;81;21086;-60
2021/10/16 06:53:23;;;;;;;12.65;9.08;;;;;;;16.45;42.32;99917.52;1747306;80;21640;-60
2021/10/16 06:55:50;;;;;;;9.55;8.23;;;;;;;16.46;42.31;99915.69;1726644;81;21054;-58
2021/10/16 06:58:17;;;;;;;9.63;8.63;;;;;;;16.46;42.32;99913.01;1726363;80;21431;-59
2021/10/16 07:00:43;;;;;;;8.88;7.97;;;;;;;16.47;42.32;99915.98;1727855;81;21066;-60
2021/10/16 07:03:21;;;;;;;10.05;8.68;;;;;;;16.47;42.32;99914.12;1695926;81;21038;-59
2021/10/16 07:05:48;;;;;;;9.73;8.70;;;;;;;16.47;42.32;99917.33;1746624;80;21101;-61
2021/10/16 07:08:15;;;;;;;9.00;8.08;;;;;;;16.48;42.31;99916.31;1729523;80;21053;-60
2021/10/16 07:10:42;;;;;;;9.50;8.10;;;;;;;16.49;42.33;99906.70;1734960;81;21870;-60
2021/10/16 07:13:10;;;;;;;9.00;8.08;;;;;;;16.50;42.33;99908.89;1741947;80;21502;-61
2021/10/16 07:15:37;;;;;;;9.60;8.55;;;;;;;16.50;42.35;99905.69;1746996;80;21082;-59
2021/10/16 07:18:03;;;;;;;9.53;8.53;;;;;;;16.51;42.33;99891.75;1740711;80;21065;-60
2021/10/16 07:20:30;;;;;;;10.23;8.90;;;;;;;16.52;42.35;99894.76;1747972;81;21070;-62
2021/10/16 07:22:57;;;;;;;9.40;8.25;;;;;;;16.53;42.33;99896.92;1728169;81;21149;-61
2021/10/16 07:25:23;;;;;;;9.38;8.48;;;;;;;16.54;42.34;99900.75;1737078;80;21648;-60
2021/10/16 07:27:54;;;;;;;9.43;8.45;;;;;;;16.55;42.32;99899.70;1726475;81;21026;-60
2021/10/16 07:30:20;;;;;;;9.70;8.70;;;;;;;16.56;42.34;99904.57;1735281;80;21112;-60
2021/10/16 07:32:47;;;;;;;10.00;8.98;;;;;;;16.56;42.34;99906.73;1726436;80;21055;-60
2021/10/16 07:35:14;;;;;;;10.72;8.78;;;;;;;16.58;42.33;99906.01;1732631;80;21140;-61
2021/10/16 07:37:40;;;;;;;9.53;8.55;;;;;;;16.59;42.35;99906.83;1733725;80;21542;-60
2021/10/16 07:40:08;;;;;;;9.93;8.90;;;;;;;16.60;42.31;99907.97;1748578;81;21034;-60
2021/10/16 07:42:36;;;;;;;11.15;9.35;;;;;;;16.61;42.32;99902.94;1752651;80;21018;-58
2021/10/16 07:45:03;;;;;;;9.80;8.90;;;;;;;16.63;42.34;99911.59;1747153;80;21033;-59
2021/10/16 07:47:29;;;;;;;9.20;8.13;;;;;;;16.64;42.34;99915.09;1729773;80;21306;-62
2021/10/16 07:49:56;;;;;;;9.93;9.00;;;;;;;16.65;42.33;99920.27;1735523;80;21159;-60
2021/10/16 07:52:22;;;;;;;10.25;8.75;;;;;;;16.67;42.30;99915.52;1750260;80;21283;-60
2021/10/16 07:54:49;;;;;;;9.25;8.35;;;;;;;16.70;42.30;99920.98;1741158;81;21108;-59
2021/10/16 07:57:15;;;;;;;9.30;8.30;;;;;;;16.71;42.29;99905.22;1742004;80;21022;-60
2021/10/16 07:59:42;;;;;;;9.15;8.10;;;;;;;16.72;42.28;99913.56;1738067;80;23303;-60
2021/10/16 08:02:08;;;;;;;9.93;8.93;;;;;;;16.75;42.25;99906.98;1731329;81;22057;-59
2021/10/16 08:07:02;;;;;;;9.15;8.25;;;;;;;16.84;42.25;99899.05;1772668;79;28140;-60
2021/10/16 08:09:28;;;;;;;10.23;9.13;;;;;;;16.80;42.24;99896.44;1747162;81;21585;-59
2021/10/16 08:11:55;;;;;;;9.98;8.90;;;;;;;16.84;42.21;99892.34;1733899;80;21111;-59
2021/10/16 08:14:23;;;;;;;9.65;8.53;;;;;;;16.86;42.18;99895.16;1734077;80;20930;-59
2021/10/16 08:16:50;;;;;;;10.05;9.05;;;;;;;16.89;42.15;99886.67;1736330;81;21022;-60
2021/10/16 08:19:17;;;;;;;10.00;9.00;;;;;;;16.92;42.13;99894.85;1735266;80;21083;-60
2021/10/16 08:21:44;;;;;;;9.50;8.60;;;;;;;16.97;42.10;99891.54;1745448;80;21001;-59
2021/10/16 08:24:10;;;;;;;9.65;8.65;;;;;;;17.00;42.08;99893.82;1750726;80;21678;-61
2021/10/16 08:26:37;;;;;;;9.80;8.73;;;;;;;17.04;42.07;99889.16;1751370;80;21029;-59
2021/10/16 08:29:03;;;;;;;8.58;7.62;;;;;;;17.09;42.03;99890.72;1745143;80;21076;-60
2021/10/16 08:31:30;;;;;;;9.08;8.18;;;;;;;17.15;42.00;99885.02;1757070;80;21050;-59
2021/10/16 08:33:56;;;;;;;9.58;8.58;;;;;;;17.21;41.97;99880.67;1744730;80;21061;-59
2021/10/16 08:36:23;;;;;;;8.73;7.45;;;;;;;17.26;41.93;99885.73;1744968;80;21088;-60
2021/10/16 08:38:52;;;;;;;9.00;8.10;;;;;;;17.32;41.90;99871.98;1748661;80;21037;-60
2021/10/16 08:41:18;;;;;;;9.50;8.48;;;;;;;17.38;41.87;99866.30;1737394;80;21061;-59
2021/10/16 08:43:44;;;;;;;9.23;8.33;;;;;;;17.44;41.80;99868.99;1749989;80;21085;-59
2021/10/16 08:46:11;;;;;;;8.78;7.90;;;;;;;17.52;41.82;99873.81;1739213;80;21072;-60
2021/10/16 08:48:40;;;;;;;9.15;8.25;;;;;;;17.59;41.76;99881.34;1732142;80;21090;-60
2021/10/16 08:51:07;;;;;;;9.00;8.10;;;;;;;17.65;41.78;99883.18;1734170;80;21596;-61
2021/10/16 08:53:34;;;;;;;9.80;7.90;;;;;;;17.72;41.71;99881.30;1730345;81;21529;-59
2021/10/16 08:56:04;;;;;;;9.43;7.90;;;;;;;17.79;41.64;99894.21;1741713;80;21049;-60
2021/10/16 08:58:29;;;;;;;8.15;7.35;;;;;;;17.85;41.62;99889.36;1742829;80;21569;-59
2021/10/16 09:00:55;;;;;;;8.63;7.70;;;;;;;17.93;41.59;99890.17;1754603;80;21194;-60
2021/10/16 09:03:31;;;;;;;8.88;7.83;;;;;;;18.00;41.56;99888.26;1736081;80;21014;-59
2021/10/16 09:06:09;;;;;;;9.45;8.10;;;;;;;18.07;41.52;99891.75;1748799;80;21040;-61
2021/10/16 09:09:00;;;;;;;8.75;7.85;;;;;;;18.15;41.43;99897.41;1743954;82;21082;-61
2021/10/16 09:11:38;;;;;;;8.93;8.03;;;;;;;18.22;41.31;99893.65;1727670;81;21137;-59
2021/10/16 09:14:11;;;;;;;9.35;8.45;;;;;;;18.30;41.28;99891.76;1730963;81;21574;-59
2021/10/16 09:16:45;;;;;;;9.15;8.25;;;;;;;18.38;41.23;99904.95;1730514;81;21053;-60
2021/10/16 09:19:25;;;;;;;9.13;8.15;;;;;;;18.46;41.24;99889.36;1714894;81;21037;-61
2021/10/16 09:21:58;;;;;;;10.32;8.20;;;;;;;18.42;41.22;99871.20;1726482;81;21087;-59
2021/10/16 09:24:27;;;;;;;7.75;7.03;;;;;;;18.62;41.17;99896.11;1730621;81;20999;-60
2021/10/16 09:26:57;;;;;;;8.33;7.42;;;;;;;18.72;41.13;99890.78;1721659;81;21153;-59
2021/10/16 09:29:28;;;;;;;8.45;7.60;;;;;;;18.80;41.05;99883.81;1720040;81;21138;-60
2021/10/16 09:31:58;;;;;;;7.80;7.03;;;;;;;18.88;41.05;99874.11;1717184;81;21014;-61
2021/10/16 09:34:33;;;;;;;8.08;7.28;;;;;;;18.98;40.98;99892.47;1712674;81;21077;-60
2021/10/16 09:37:07;;;;;;;8.45;7.40;;;;;;;19.07;40.90;99881.73;1715138;82;21497;-61
2021/10/16 09:39:42;;;;;;;8.33;7.37;;;;;;;19.17;40.88;99887.95;1736830;80;22130;-60
2021/10/16 09:42:10;;;;;;;8.00;6.62;;;;;;;19.25;40.83;99884.98;1728451;81;21047;-61
2021/10/16 09:44:39;;;;;;;8.23;7.37;;;;;;;19.34;40.77;99884.19;1745684;80;21039;-61
2021/10/16 09:47:11;;;;;;;7.60;6.72;;;;;;;19.42;40.72;99886.05;1724171;80;21097;-60
2021/10/16 09:49:47;;;;;;;7.78;6.97;;;;;;;19.53;40.67;99914.64;1721930;82;21101;-60
2021/10/16 09:52:15;;;;;;;7.70;7.00;;;;;;;19.61;40.60;99892.81;1723172;80;21270;-59
2021/10/16 09:54:43;;;;;;;8.58;7.12;;;;;;;19.70;40.55;99890.14;1730604;81;21011;-60
2021/10/16 09:57:12;;;;;;;8.60;7.33;;;;;;;19.79;40.51;99894.19;1732367;81;21495;-59
2021/10/16 09:59:40;;;;;;;7.62;6.80;;;;;;;19.88;40.46;99879.89;1721906;80;21065;-60
2021/10/16 10:02:07;;;;;;;7.42;6.37;;;;;;;19.89;40.41;99864.53;1718127;80;21530;-61
2021/10/16 10:04:46;;;;;;;7.58;6.62;;;;;;;20.05;40.36;99870.67;1724165;82;21773;-59
2021/10/16 10:07:15;;;;;;;8.13;7.33;;;;;;;20.15;40.34;99874.98;1745697;80;21001;-60
2021/10/16 10:09:42;;;;;;;7.22;6.53;;;;;;;20.28;40.35;99863.70;1754323;81;21054;-59
2021/10/16 10:12:10;;;;;;;8.05;6.17;;;;;;;20.36;40.31;99863.41;1739856;81;21061;-61
2021/10/16 10:14:45;;;;;;;7.53;6.80;;;;;;;20.46;40.20;99870.41;1737387;81;21085;-61
2021/10/16 10:17:12;;;;;;;7.17;6.28;;;;;;;20.55;40.15;99861.45;1739858;81;21102;-60
2021/10/16 10:19:42;;;;;;;7.78;6.97;;;;;;;20.64;40.10;99849.30;1738462;80;21143;-61
2021/10/16 10:22:17;;;;;;;7.60;6.90;;;;;;;20.73;40.03;99857.37;1739449;80;21147;-60
2021/10/16 10:24:46;;;;;;;7.30;6.60;;;;;;;20.84;39.97;99855.72;1740003;81;21077;-59
2021/10/16 10:27:14;;;;;;;7.40;6.58;;;;;;;20.92;39.87;99859.45;1740737;81;21702;-59
2021/10/16 10:29:45;;;;;;;7.12;6.42;;;;;;;21.00;39.81;99853.70;1729783;80;21791;-59
2021/10/16 10:32:26;;;;;;;6.87;6.20;;;;;;;21.11;39.72;99862.03;1728346;81;21473;-61
2021/10/16 10:35:01;;;;;;;6.85;5.97;;;;;;;21.09;39.68;99835.78;1730283;81;21045;-60
2021/10/16 10:37:39;;;;;;;6.45;5.85;;;;;;;21.27;39.63;99846.48;1741959;81;21042;-60
2021/10/16 10:40:19;;;;;;;6.28;5.67;;;;;;;21.35;39.53;99840.71;1758915;80;21070;-61
2021/10/16 10:42:49;;;;;;;7.20;5.83;;;;;;;21.46;39.44;99845.02;1734899;80;21138;-61
2021/10/16 10:45:36;;;;;;;8.05;6.95;;;;;;;21.55;39.42;99841.70;1732574;80;21053;-61
2021/10/16 10:48:14;;;;;;;7.40;6.67;;;;;;;21.64;39.35;99839.47;1732940;80;21077;-60
2021/10/16 10:50:51;;;;;;;6.60;6.00;;;;;;;21.75;39.26;99840.48;1731945;80;21136;-60
2021/10/16 10:53:36;;;;;;;6.45;5.72;;;;;;;21.83;39.19;99838.78;1732031;81;21042;-59
2021/10/16 10:56:10;;;;;;;7.40;6.22;;;;;;;21.93;39.12;99834.10;1727616;80;21103;-60
2021/10/16 10:58:57;;;;;;;7.58;6.67;;;;;;;22.02;39.07;99832.66;1738525;81;21061;-61
2021/10/16 11:01:52;;;;;;;6.70;5.97;;;;;;;22.12;39.00;99823.38;1752713;81;21018;-60
2021/10/16 11:04:51;;;;;;;6.65;6.05;;;;;;;22.22;38.92;99824.63;1752858;81;21336;-60
2021/10/16 11:07:34;;;;;;;6.40;5.80;;;;;;;22.31;38.83;99814.55;1742446;80;21014;-59
2021/10/16 11:10:01;;;;;;;6.15;5.55;;;;;;;22.42;38.74;99818.24;1720333;82;22799;-60
2021/10/16 11:12:33;;;;;;;6.22;5.35;;;;;;;22.51;38.70;99811.91;1726795;80;21560;-59
2021/10/16 11:15:00;;;;;;;6.85;6.15;;;;;;;22.60;38.59;99811.80;1724977;81;21502;-59
2021/10/16 11:17:45;;;;;;;6.72;5.97;;;;;;;22.69;38.51;99818.96;1727418;81;21038;-60
2021/10/16 11:20:16;;;;;;;6.17;5.58;;;;;;;22.77;38.40;99823.45;1717577;81;21018;-59
2021/10/16 11:22:52;;;;;;;6.65;5.92;;;;;;;22.87;38.34;99816.02;1719422;81;21128;-60
2021/10/16 11:25:25;;;;;;;7.30;5.95;;;;;;;22.95;38.29;99806.66;1714915;82;21105;-61
2021/10/16 11:28:09;;;;;;;6.05;5.53;;;;;;;23.04;38.21;99804.36;1732487;81;21082;-60
2021/10/16 11:30:45;;;;;;;5.90;5.40;;;;;;;23.12;38.17;99803.92;1740344;81;21525;-60
2021/10/16 11:33:17;;;;;;;6.47;5.80;;;;;;;23.20;38.09;99798.10;1722506;81;21035;-61
2021/10/16 11:35:45;;;;;;;6.75;6.08;;;;;;;23.27;38.04;99787.06;1743087;80;21519;-60
2021/10/16 11:38:14;;;;;;;6.60;5.90;;;;;;;23.35;37.98;99792.05;1736050;81;21023;-60
2021/10/16 11:40:42;;;;;;;5.67;5.17;;;;;;;23.45;37.92;99790.00;1734909;81;21007;-60
2021/10/16 11:43:11;;;;;;;6.08;5.45;;;;;;;23.53;37.85;99791.75;1723625;81;21541;-59